This is the latest recevied weather packets stored in our database for station/object IW1CGW-23. If no packets are shown the sender has not sent any weather packets the latest 1 day(s).
| Time | Temp. | Humidity | Pressure | Rain* | Wind** | Luminosity | Snow |
|---|---|---|---|---|---|---|---|
| 1778085697 | 18.33° C | 74% | 1009.2 hPa | - | - | - | - |
| 1778084910 | 18.33° C | 74% | 1009.2 hPa | - | - | - | - |
| 1778080207 | 19.44° C | 73% | 1009.2 hPa | - | - | - | - |
| 1778077856 | 19.44° C | 74% | 1009.3 hPa | - | - | - | - |
| 1778065308 | 21.11° C | 69% | 1010.1 hPa | - | - | - | - |
| 1778064522 | 21.67° C | 69% | 1010 hPa | - | - | - | - |
| 1778062954 | 22.22° C | 68% | 1009.9 hPa | - | - | - | - |
| 1778060593 | 22.22° C | 69% | 1009.6 hPa | - | - | - | - |
| 1778059015 | 22.22° C | 70% | 1009.8 hPa | - | - | - | - |
| 1778057446 | 23.33° C | 70% | 1009.5 hPa | - | - | - | - |
| 1778051148 | 22.78° C | 77% | 1009.4 hPa | - | - | - | - |
| 1778050361 | 23.33° C | 79% | 1009.2 hPa | - | - | - | - |
| 1778048800 | 20.56° C | 84% | 1009.1 hPa | - | - | - | - |
| 1778047216 | 19.44° C | 87% | 1009.1 hPa | - | - | - | - |
| 1778044868 | 13.89° C | 94% | 1008.8 hPa | - | - | - | - |
| 1778042525 | 12.78° C | 93% | 1008.7 hPa | - | - | - | - |
| 1778040964 | 12.78° C | 92% | 1008.6 hPa | - | - | - | - |
| 1778040183 | 13.33° C | 91% | 1008.9 hPa | - | - | - | - |
| 1778038621 | 13.33° C | 91% | 1009.6 hPa | - | - | - | - |
| 1778037839 | 13.33° C | 91% | 1009.1 hPa | - | - | - | - |
| 1778036284 | 12.78° C | 91% | 1008.7 hPa | - | - | - | - |
| 1778032373 | 13.33° C | 91% | 1009.8 hPa | - | - | - | - |
| 1778030030 | 13.89° C | 91% | 1010 hPa | - | - | - | - |
| 1778029249 | 13.89° C | 92% | 1010 hPa | - | - | - | - |
| 1778027688 | 13.33° C | 93% | 1009.8 hPa | - | - | - | - |
* Rain since midnight (hover to see other rain measurements)
** Current wind speed in m/s (hover to see current wind gust speed)